createdAt,value
2023-05-09T00:00:39.390Z,51.23
2023-05-09T00:04:57.072Z,51.44
2023-05-09T00:26:15.161Z,51.88
2023-05-09T00:30:44.004Z,52.20
2023-05-09T00:35:13.862Z,52.19
2023-05-09T00:57:04.066Z,52.76
2023-05-09T01:01:32.772Z,53.08
2023-05-09T01:23:40.624Z,53.40
2023-05-09T01:28:13.918Z,53.54
2023-05-09T01:32:26.263Z,53.56
2023-05-09T01:36:55.426Z,53.67
2023-05-09T01:41:08.701Z,53.53
2023-05-09T01:45:40.865Z,54.03
2023-05-09T01:50:11.106Z,54.03
2023-05-09T01:54:28.114Z,53.86
2023-05-09T02:16:15.102Z,54.93
2023-05-09T02:20:47.030Z,54.93
2023-05-09T02:25:16.290Z,54.88
2023-05-09T02:29:45.651Z,55.16
2023-05-09T02:47:08.211Z,55.48
2023-05-09T02:51:36.965Z,55.73
2023-05-09T03:22:24.435Z,56.35
2023-05-09T03:26:42.197Z,56.45
2023-05-09T03:31:04.344Z,56.60
2023-05-09T03:35:33.230Z,56.31
2023-05-09T03:57:26.343Z,56.07
2023-05-09T04:01:56.221Z,55.95
2023-05-09T04:06:26.039Z,55.22
2023-05-09T04:23:44.317Z,54.17
2023-05-09T04:28:13.118Z,53.94
2023-05-09T04:58:51.467Z,52.36
2023-05-09T05:03:20.858Z,51.99
2023-05-09T05:07:50.319Z,51.99
2023-05-09T05:33:34.625Z,50.72
2023-05-09T05:38:03.875Z,50.67
2023-05-09T05:42:33.360Z,50.45
2023-05-09T06:21:08.116Z,48.60
2023-05-09T06:25:26.316Z,48.49
2023-05-09T06:29:47.838Z,48.23
2023-05-09T06:34:17.904Z,47.91
2023-05-09T06:38:31.217Z,47.55
2023-05-09T07:01:05.586Z,46.47
2023-05-09T07:05:23.543Z,46.06
2023-05-09T07:09:43.475Z,45.82
2023-05-09T07:14:11.100Z,45.64
2023-05-09T08:03:50.298Z,40.73
2023-05-09T08:07:51.400Z,40.47
2023-05-09T08:12:06.221Z,40.05
2023-05-09T08:16:35.722Z,39.69
2023-05-09T08:38:09.677Z,38.74
2023-05-09T08:42:27.859Z,38.52
2023-05-09T08:46:56.651Z,38.67
2023-05-09T08:51:25.984Z,38.50
2023-05-09T08:55:54.729Z,38.08
2023-05-09T09:00:20.452Z,38.08
2023-05-09T09:04:31.480Z,37.64
2023-05-09T09:18:21.082Z,36.54
2023-05-09T09:22:50.767Z,36.40
2023-05-09T09:27:11.618Z,36.31
2023-05-09T09:48:01.232Z,35.06
2023-05-09T09:52:26.740Z,34.90
2023-05-09T09:56:56.379Z,34.87
2023-05-09T10:27:06.354Z,33.95
2023-05-09T10:31:38.367Z,33.47
2023-05-09T10:36:07.431Z,33.57
2023-05-09T10:40:37.140Z,33.66
2023-05-09T10:45:06.607Z,33.35
2023-05-09T10:49:37.422Z,33.25
2023-05-09T11:20:01.240Z,31.38
2023-05-09T11:24:30.065Z,31.34
2023-05-09T11:29:08.272Z,31.38
2023-05-09T11:56:46.929Z,30.57
2023-05-09T12:01:18.749Z,30.41
2023-05-09T12:09:17.125Z,29.89
2023-05-09T12:13:45.984Z,29.97
2023-05-09T12:18:15.494Z,29.70
2023-05-09T12:22:45.771Z,29.24
2023-05-09T12:27:19.452Z,29.03
2023-05-09T12:31:50.224Z,29.13
2023-05-09T12:49:20.485Z,28.58
2023-05-09T12:53:52.485Z,28.37
2023-05-09T13:24:14.910Z,27.71
2023-05-09T13:28:34.297Z,27.21
2023-05-09T13:50:14.790Z,27.35
2023-05-09T13:54:33.533Z,27.44
2023-05-09T14:12:51.247Z,27.12
2023-05-09T14:17:13.696Z,26.68
2023-05-09T14:21:42.125Z,26.80
2023-05-09T14:26:03.724Z,26.70
2023-05-09T14:43:14.106Z,26.68
2023-05-09T14:47:43.219Z,26.88
2023-05-09T14:52:05.069Z,26.78
2023-05-09T15:11:23.966Z,26.87
2023-05-09T15:15:56.242Z,26.91
2023-05-09T15:20:04.560Z,27.15
2023-05-09T15:24:22.781Z,26.96
2023-05-09T15:41:42.647Z,27.48
2023-05-09T15:45:34.107Z,27.62
2023-05-09T15:49:42.636Z,27.57
2023-05-09T16:11:33.586Z,27.62
2023-05-09T16:16:03.025Z,27.90
2023-05-09T16:41:36.355Z,28.62
2023-05-09T16:46:03.810Z,28.77
2023-05-09T16:50:32.486Z,28.87
2023-05-09T17:11:16.710Z,30.04
2023-05-09T17:15:36.233Z,30.27
2023-05-09T17:20:06.334Z,30.33
2023-05-09T17:24:23.904Z,30.80
2023-05-09T17:28:40.234Z,30.95
2023-05-09T17:45:55.283Z,31.58
2023-05-09T17:50:05.485Z,31.66
2023-05-09T17:54:35.191Z,31.92
2023-05-09T17:58:57.194Z,32.13
2023-05-09T18:29:31.078Z,33.46
2023-05-09T18:34:00.201Z,33.66
2023-05-09T18:38:29.598Z,33.86
2023-05-09T18:42:48.973Z,34.00
2023-05-09T18:51:07.874Z,34.43
2023-05-09T18:55:25.762Z,34.65
2023-05-09T18:59:43.829Z,34.71
2023-05-09T19:04:12.728Z,35.04
2023-05-09T19:08:40.990Z,35.24
2023-05-09T19:30:28.681Z,36.22
2023-05-09T19:34:58.273Z,36.51
2023-05-09T19:56:45.524Z,37.23
2023-05-09T20:01:14.600Z,37.41
2023-05-09T20:23:02.758Z,38.32
2023-05-09T20:27:32.069Z,38.46
2023-05-09T20:39:17.997Z,39.25
2023-05-09T20:43:16.289Z,39.41
2023-05-09T20:47:45.550Z,39.53
2023-05-09T21:09:26.375Z,40.55
2023-05-09T21:13:56.870Z,40.70
2023-05-09T21:18:26.137Z,40.85
2023-05-09T21:22:56.581Z,41.15
2023-05-09T21:44:30.559Z,41.89
2023-05-09T21:48:39.116Z,41.91
2023-05-09T21:53:08.293Z,42.25
2023-05-09T21:57:37.717Z,42.25
2023-05-09T22:18:59.658Z,43.56
2023-05-09T22:23:28.881Z,44.17
2023-05-09T22:27:50.973Z,44.20
2023-05-09T22:45:11.229Z,44.46
2023-05-09T22:49:40.231Z,44.69
2023-05-09T22:54:09.919Z,44.77
2023-05-09T23:03:08.017Z,44.93
2023-05-09T23:20:28.869Z,45.06
2023-05-09T23:24:57.739Z,45.27
2023-05-09T23:42:16.635Z,45.35
2023-05-09T23:46:45.681Z,45.34
2023-05-09T23:51:14.509Z,45.40
2023-05-09T23:55:43.491Z,45.52
